Greenwood Lake, New York
Current Conditions -  °F | °C
As of 4:53 AM on Thursday 23 Oct 2014 (Local Time) from KFWN Reporting Station
Light Rain Light Rain  
Wind Chill: 52°   Ceiling: 2900
Heat Index: 52°   Visibility: 10mi
Dew Point: 47°   Wind: 3mph
Humidity: 83%   Direction: NA
Pressure: 29.76"   Gusts: NA
Location:  41.22°N, 74.29°W
Report Text: KFWN 230853Z AUTO VRB03KT 10SM -RA OVC029 11/08 A2976 RMK AO2 SLP076 P0004 60011 T01110083 58012
Loading
Personal Weather Stations






























Interactive Weather Map
Tropical Storm Tracking
New forecast layout! Learn more

10-Day Weather Forecast

Advertisements
Track Severe Weather on mobile